Time;durP1;ratioP1;P1;durP2;ratioP2;P2;SDS_P1;SDS_P2;PMS_P1;PMS_P2;Temp;Humidity;BMP_temperature;BMP_pressure;BME280_temperature;BME280_humidity;BME280_pressure;Samples;Min_cycle;Max_cycle;Signal;HPM_P1;HPM_P2
2024/02/05 00:01:22;;;;;;;0.20;0.20;;;;;;;6.69;100.00;100333.94;4868512;29;20036;-70
2024/02/05 00:03:47;;;;;;;0.47;0.47;;;;;;;6.74;100.00;100340.13;4869267;29;20155;-71
2024/02/05 00:06:13;;;;;;;0.25;0.25;;;;;;;6.70;100.00;100364.38;4872751;29;20053;-71
2024/02/05 00:08:41;;;;;;;0.20;0.20;;;;;;;6.63;100.00;100338.22;4869757;29;20133;-70
2024/02/05 00:11:07;;;;;;;0.30;0.30;;;;;;;6.74;100.00;100344.44;4868220;29;20049;-70
2024/02/05 00:13:33;;;;;;;0.30;0.30;;;;;;;6.74;100.00;100347.94;4867728;29;20363;-70
2024/02/05 00:15:59;;;;;;;0.75;0.75;;;;;;;6.12;100.00;100235.81;4869466;29;20105;-71
2024/02/05 00:18:25;;;;;;;0.30;0.30;;;;;;;6.15;100.00;100235.84;4851900;29;20398;-70
2024/02/05 00:20:51;;;;;;;0.30;0.30;;;;;;;6.26;100.00;100256.84;4867983;29;20057;-71
2024/02/05 00:23:17;;;;;;;0.43;0.43;;;;;;;6.77;100.00;100339.28;4868102;29;20053;-71
2024/02/05 00:25:42;;;;;;;0.30;0.30;;;;;;;6.74;100.00;100349.63;4869944;29;20512;-71
2024/02/05 00:28:10;;;;;;;0.30;0.30;;;;;;;6.79;100.00;100329.75;4873109;29;20039;-71
2024/02/05 00:30:36;;;;;;;0.38;0.38;;;;;;;6.79;100.00;100337.56;4871352;29;20533;-70
2024/02/05 00:33:01;;;;;;;0.30;0.30;;;;;;;6.68;100.00;100305.25;4872691;29;20047;-70
2024/02/05 00:35:27;;;;;;;0.30;0.30;;;;;;;6.68;100.00;100292.22;4869021;29;20055;-70
2024/02/05 00:37:53;;;;;;;0.20;0.20;;;;;;;6.85;100.00;100295.03;4869764;29;20112;-71
2024/02/05 00:40:20;;;;;;;0.95;0.95;;;;;;;6.82;100.00;100290.66;4867235;29;20045;-70
2024/02/05 00:42:46;;;;;;;0.70;0.70;;;;;;;6.78;100.00;100280.16;4868511;29;20093;-71
2024/02/05 00:45:12;;;;;;;0.32;0.32;;;;;;;6.88;100.00;100303.78;4870371;29;20061;-71
2024/02/05 00:47:37;;;;;;;0.30;0.30;;;;;;;7.03;100.00;100302.25;4873026;29;20064;-70
2024/02/05 00:50:04;;;;;;;0.20;0.20;;;;;;;6.44;100.00;100184.16;4870924;29;20109;-70
2024/02/05 00:52:30;;;;;;;0.30;0.30;;;;;;;6.83;100.00;100250.66;4868992;29;20034;-71
2024/02/05 00:54:56;;;;;;;0.20;0.20;;;;;;;7.02;100.00;100287.44;4868533;29;20048;-71
2024/02/05 00:57:22;;;;;;;0.40;0.40;;;;;;;6.94;100.00;100288.22;4869356;29;20152;-71
2024/02/05 00:59:47;;;;;;;0.47;0.47;;;;;;;6.33;100.00;100165.75;4865581;29;20053;-71
2024/02/05 01:02:13;;;;;;;0.20;0.20;;;;;;;6.70;100.00;100248.78;4866963;29;20398;-71
2024/02/05 01:04:39;;;;;;;0.20;0.20;;;;;;;6.91;100.00;100275.13;4868244;29;20489;-71
2024/02/05 01:07:07;;;;;;;0.22;0.22;;;;;;;6.90;100.00;100270.75;4861266;29;20493;-71
2024/02/05 01:09:33;;;;;;;0.30;0.30;;;;;;;6.55;100.00;100211.25;4862213;29;20114;-72
2024/02/05 01:11:58;;;;;;;0.30;0.30;;;;;;;6.78;100.00;100259.31;4866298;29;20147;-71
2024/02/05 01:14:24;;;;;;;3.10;2.90;;;;;;;6.84;100.00;100234.19;4868064;29;20514;-71
2024/02/05 01:16:49;;;;;;;0.20;0.20;;;;;;;6.40;100.00;100143.25;4865174;29;20056;-71
2024/02/05 01:19:16;;;;;;;0.30;0.30;;;;;;;6.96;100.00;100243.88;4869767;29;20495;-71
2024/02/05 01:21:42;;;;;;;0.22;0.22;;;;;;;6.41;100.00;100137.19;4869404;29;20051;-71
2024/02/05 01:24:08;;;;;;;0.63;0.60;;;;;;;6.86;100.00;100208.09;4835390;29;20084;-71
2024/02/05 01:26:33;;;;;;;2.05;1.95;;;;;;;6.39;100.00;100133.72;4864935;29;20148;-71
2024/02/05 01:28:59;;;;;;;0.30;0.30;;;;;;;7.03;100.00;100232.66;4868101;29;20481;-71
2024/02/05 01:31:24;;;;;;;1.65;1.55;;;;;;;7.04;100.00;100226.59;4867297;29;20033;-71
2024/02/05 01:33:50;;;;;;;0.28;0.28;;;;;;;6.98;100.00;100213.50;4866718;29;20551;-71
2024/02/05 01:36:15;;;;;;;0.30;0.30;;;;;;;7.01;100.00;100221.34;4866103;29;20053;-71
2024/02/05 01:38:41;;;;;;;0.30;0.30;;;;;;;6.93;100.00;100233.41;4865812;29;20122;-70
2024/02/05 01:41:07;;;;;;;0.20;0.20;;;;;;;6.50;100.00;100136.44;4864218;29;20706;-72
2024/02/05 01:43:32;;;;;;;0.20;0.20;;;;;;;6.95;100.00;100221.25;4867317;29;20033;-71
2024/02/05 01:45:58;;;;;;;0.25;0.25;;;;;;;7.09;100.00;100229.25;4867361;29;20041;-71
2024/02/05 01:48:28;;;;;;;0.32;0.32;;;;;;;7.01;100.00;100216.13;4865259;29;20105;-71
2024/02/05 01:50:54;;;;;;;0.63;0.63;;;;;;;6.60;100.00;100156.53;4866732;29;20068;-70
2024/02/05 01:53:21;;;;;;;0.20;0.20;;;;;;;7.10;100.00;100236.22;4869765;29;20049;-70
2024/02/05 01:55:50;;;;;;;0.30;0.30;;;;;;;6.42;100.00;100114.63;4871947;29;20145;-71
2024/02/05 01:58:17;;;;;;;0.20;0.20;;;;;;;7.08;100.00;100227.50;4870217;29;20449;-70
2024/02/05 02:00:42;;;;;;;0.63;0.63;;;;;;;6.48;100.00;100112.94;4872673;29;20120;-70
2024/02/05 02:03:09;;;;;;;3.75;3.55;;;;;;;6.40;100.00;100088.53;4876311;29;20072;-71
2024/02/05 02:05:36;;;;;;;0.20;0.20;;;;;;;7.16;100.00;100220.63;4880574;29;20052;-70
2024/02/05 02:08:04;;;;;;;0.20;0.20;;;;;;;7.15;100.00;100205.84;4854831;29;20063;-70
2024/02/05 02:10:31;;;;;;;0.20;0.20;;;;;;;6.55;100.00;100090.44;4875545;29;20033;-71
2024/02/05 02:12:57;;;;;;;0.20;0.20;;;;;;;6.61;100.00;100084.44;4869907;29;20395;-71
2024/02/05 02:15:23;;;;;;;0.52;0.52;;;;;;;7.21;100.00;100203.31;4872277;29;20545;-71
2024/02/05 02:17:51;;;;;;;0.25;0.25;;;;;;;6.63;100.00;100100.97;4874980;29;20059;-71
2024/02/05 02:20:20;;;;;;;0.20;0.20;;;;;;;6.67;100.00;100105.34;4873944;29;20045;-71
2024/02/05 02:22:57;;;;;;;0.50;0.50;;;;;;;7.18;100.00;100193.69;4872053;29;20060;-70
2024/02/05 02:25:23;;;;;;;0.30;0.30;;;;;;;7.18;100.00;100187.59;4870878;29;20480;-72
2024/02/05 02:27:49;;;;;;;0.30;0.30;;;;;;;6.80;100.00;100116.78;4859746;29;20048;-71
2024/02/05 02:30:18;;;;;;;0.20;0.20;;;;;;;7.12;100.00;100179.72;4868957;29;20449;-71
2024/02/05 02:32:50;;;;;;;1.00;0.68;;;;;;;6.97;100.00;100123.03;4868837;29;20064;-72
2024/02/05 02:35:26;;;;;;;0.40;0.40;;;;;;;7.31;100.00;100188.59;4868344;29;20494;-71
2024/02/05 02:38:03;;;;;;;0.63;0.50;;;;;;;6.84;100.00;100098.56;4871252;29;20045;-72
2024/02/05 02:40:30;;;;;;;0.30;0.30;;;;;;;7.13;100.00;100150.16;4866921;29;20036;-71
2024/02/05 02:43:05;;;;;;;0.30;0.30;;;;;;;7.36;100.00;100184.31;4869307;29;20811;-71
2024/02/05 02:45:32;;;;;;;0.20;0.20;;;;;;;7.40;100.00;100178.25;4870422;29;20041;-71
2024/02/05 02:47:58;;;;;;;0.20;0.20;;;;;;;7.20;100.00;100165.00;4870770;29;20057;-71
2024/02/05 02:50:24;;;;;;;0.20;0.20;;;;;;;7.30;100.00;100176.41;4872184;29;20057;-71
2024/02/05 02:52:49;;;;;;;0.20;0.20;;;;;;;7.23;100.00;100151.09;4867923;29;20808;-71
2024/02/05 02:55:15;;;;;;;0.20;0.20;;;;;;;7.30;100.00;100156.38;4876663;29;20045;-71
2024/02/05 02:57:40;;;;;;;0.20;0.20;;;;;;;7.40;100.00;100157.38;4868173;29;20041;-70
2024/02/05 03:00:09;;;;;;;0.20;0.20;;;;;;;7.36;100.00;100164.28;4870885;29;20045;-72
2024/02/05 03:02:34;;;;;;;1.00;1.00;;;;;;;7.58;100.00;100172.28;4866428;29;20060;-71
2024/02/05 03:05:01;;;;;;;0.40;0.40;;;;;;;7.34;100.00;100139.03;4869218;29;20051;-71
2024/02/05 03:07:27;;;;;;;0.30;0.30;;;;;;;6.95;100.00;100072.59;4868507;29;20044;-71
2024/02/05 03:09:54;;;;;;;0.20;0.20;;;;;;;7.33;100.00;100122.50;4871510;29;20036;-71
2024/02/05 03:12:20;;;;;;;0.20;0.20;;;;;;;7.45;100.00;100153.06;4871436;29;20064;-71
2024/02/05 03:14:46;;;;;;;0.30;0.30;;;;;;;7.02;100.00;100076.13;4852064;29;20049;-71
2024/02/05 03:17:11;;;;;;;0.70;0.70;;;;;;;7.53;100.00;100167.03;4851583;29;20404;-70
2024/02/05 03:19:38;;;;;;;0.20;0.20;;;;;;;7.50;100.00;100174.84;4869049;29;20064;-71
2024/02/05 03:22:04;;;;;;;0.20;0.20;;;;;;;7.18;100.00;100101.50;4870838;29;20048;-71
2024/02/05 03:24:29;;;;;;;0.20;0.20;;;;;;;6.95;100.00;100060.44;4868579;29;20060;-72
2024/02/05 03:26:55;;;;;;;0.20;0.20;;;;;;;7.40;100.00;100141.72;4869811;29;20469;-71
2024/02/05 03:29:20;;;;;;;0.20;0.20;;;;;;;7.29;100.00;100117.25;4870761;29;20104;-71
2024/02/05 03:31:46;;;;;;;5.97;1.92;;;;;;;7.43;100.00;100141.72;4871530;29;20049;-71
2024/02/05 03:34:11;;;;;;;1.38;1.27;;;;;;;7.28;100.00;100147.69;4872404;29;20029;-72
2024/02/05 03:36:37;;;;;;;0.20;0.20;;;;;;;7.27;100.00;100132.88;4870550;29;20689;-71
2024/02/05 03:39:03;;;;;;;0.25;0.25;;;;;;;7.26;100.00;100138.97;4870080;29;20517;-70
2024/02/05 03:41:29;;;;;;;0.20;0.20;;;;;;;7.39;100.00;100148.66;4868371;29;20112;-70
2024/02/05 03:43:54;;;;;;;0.20;0.20;;;;;;;6.91;100.00;100058.66;4865385;29;20485;-70
2024/02/05 03:46:20;;;;;;;0.30;0.30;;;;;;;6.91;100.00;100063.88;4870045;29;20516;-70
2024/02/05 03:48:53;;;;;;;0.30;0.30;;;;;;;7.01;100.00;100074.38;4866766;29;20056;-72
2024/02/05 03:51:19;;;;;;;0.20;0.20;;;;;;;7.45;100.00;100139.13;4869404;29;20048;-71
2024/02/05 03:53:45;;;;;;;0.25;0.25;;;;;;;7.44;100.00;100146.06;4868039;29;20059;-71
2024/02/05 03:56:12;;;;;;;0.35;0.35;;;;;;;6.85;100.00;100031.66;4858506;29;20049;-71
2024/02/05 03:58:38;;;;;;;0.30;0.30;;;;;;;7.52;100.00;100135.72;4836556;29;20075;-71
2024/02/05 04:01:04;;;;;;;0.22;0.22;;;;;;;6.93;100.00;100028.25;4836740;29;20183;-71
2024/02/05 04:03:30;;;;;;;0.25;0.25;;;;;;;7.58;100.00;100123.56;4837726;29;20049;-71
2024/02/05 04:05:57;;;;;;;0.57;0.57;;;;;;;7.01;100.00;100032.66;4834891;29;20567;-72
2024/02/05 04:08:24;;;;;;;0.30;0.30;;;;;;;7.40;100.00;100085.16;4833391;29;20490;-72
2024/02/05 04:10:51;;;;;;;0.30;0.30;;;;;;;7.41;100.00;100106.91;4832507;29;20046;-71
2024/02/05 04:13:17;;;;;;;0.45;0.45;;;;;;;7.58;100.00;100118.34;4837922;29;20117;-71
2024/02/05 04:15:43;;;;;;;0.30;0.30;;;;;;;7.12;100.00;100031.88;4837242;29;20046;-72
2024/02/05 04:18:09;;;;;;;0.22;0.22;;;;;;;7.43;100.00;100096.50;4841719;29;20038;-72
2024/02/05 04:20:35;;;;;;;0.30;0.30;;;;;;;7.63;100.00;100125.34;4856060;29;20058;-71
2024/02/05 04:23:00;;;;;;;0.30;0.30;;;;;;;7.30;100.00;100067.66;4832865;29;20053;-70
2024/02/05 04:25:26;;;;;;;0.20;0.20;;;;;;;6.96;100.00;100007.41;4836879;29;20049;-70
2024/02/05 04:27:51;;;;;;;0.20;0.20;;;;;;;7.01;100.00;100028.31;4838608;29;20048;-72
2024/02/05 04:30:18;;;;;;;0.28;0.28;;;;;;;6.92;100.00;100028.22;4834582;29;20149;-72
2024/02/05 04:32:43;;;;;;;0.20;0.20;;;;;;;6.92;100.00;100044.75;4834688;29;20129;-72
2024/02/05 04:35:09;;;;;;;0.20;0.20;;;;;;;7.55;100.00;100144.44;4836053;29;20668;-71
2024/02/05 04:37:35;;;;;;;0.20;0.20;;;;;;;6.94;100.00;100047.38;4837014;29;20387;-72
2024/02/05 04:40:01;;;;;;;0.30;0.30;;;;;;;6.77;100.00;100034.19;4837837;29;20406;-71
2024/02/05 04:42:26;;;;;;;0.30;0.30;;;;;;;6.81;100.00;100025.50;4857715;29;20056;-72
2024/02/05 04:44:52;;;;;;;0.25;0.25;;;;;;;7.24;100.00;100116.34;4835473;29;20069;-72
2024/02/05 04:47:17;;;;;;;0.40;0.40;;;;;;;7.26;100.00;100120.72;4835719;29;20455;-72
2024/02/05 04:49:45;;;;;;;0.20;0.20;;;;;;;6.80;100.00;100029.00;4837745;29;20053;-72
2024/02/05 04:52:10;;;;;;;1.50;1.38;;;;;;;7.20;100.00;100110.22;4855737;29;20557;-72
2024/02/05 04:54:37;;;;;;;0.20;0.20;;;;;;;6.74;100.00;100027.22;4840292;29;20136;-72
2024/02/05 04:57:03;;;;;;;0.50;0.50;;;;;;;6.68;100.00;100013.25;4868481;29;20075;-71
2024/02/05 04:59:29;;;;;;;0.75;0.75;;;;;;;7.32;100.00;100120.75;4871894;29;20497;-71
2024/02/05 05:01:55;;;;;;;4.57;0.82;;;;;;;7.37;100.00;100121.69;4870376;29;20105;-71
2024/02/05 05:04:22;;;;;;;0.20;0.20;;;;;;;7.03;100.00;100083.97;4870434;29;20040;-70
2024/02/05 05:06:48;;;;;;;0.30;0.30;;;;;;;6.73;100.00;100040.22;4870293;29;20037;-73
2024/02/05 05:09:13;;;;;;;0.20;0.20;;;;;;;6.73;100.00;100030.66;4868942;29;20900;-72
2024/02/05 05:11:39;;;;;;;0.30;0.30;;;;;;;7.18;100.00;100118.00;4870657;29;20523;-72
2024/02/05 05:14:04;;;;;;;0.40;0.40;;;;;;;6.64;100.00;100029.72;4865882;29;20197;-71
2024/02/05 05:16:30;;;;;;;0.43;0.38;;;;;;;7.12;100.00;100131.03;4868612;29;20025;-72
2024/02/05 05:19:01;;;;;;;0.22;0.22;;;;;;;7.18;100.00;100125.84;4869864;29;20754;-71
2024/02/05 05:21:27;;;;;;;3.17;2.97;;;;;;;7.23;100.00;100122.41;4865842;29;20120;-71
2024/02/05 05:23:52;;;;;;;0.55;0.55;;;;;;;7.14;100.00;100113.66;4866556;29;20120;-71
2024/02/05 05:26:21;;;;;;;0.30;0.30;;;;;;;7.31;100.00;100134.66;4868655;29;20053;-72
2024/02/05 05:28:48;;;;;;;0.30;0.30;;;;;;;7.14;100.00;100117.97;4875195;29;20160;-72
2024/02/05 05:31:16;;;;;;;1.77;1.40;;;;;;;7.14;100.00;100100.59;4876259;29;20174;-72
2024/02/05 05:33:43;;;;;;;0.20;0.20;;;;;;;6.78;100.00;100022.03;4868495;29;20061;-70
2024/02/05 05:36:09;;;;;;;0.20;0.20;;;;;;;7.23;100.00;100125.00;4871383;29;20052;-71
2024/02/05 05:38:34;;;;;;;0.22;0.22;;;;;;;7.14;100.00;100110.13;4872336;29;20482;-73
2024/02/05 05:41:00;;;;;;;0.40;0.40;;;;;;;6.67;100.00;100029.72;4873967;29;20139;-74
2024/02/05 05:43:25;;;;;;;0.20;0.20;;;;;;;6.73;100.00;100032.41;4869237;29;20029;-71
2024/02/05 05:45:51;;;;;;;0.40;0.40;;;;;;;7.32;100.00;100146.84;4874960;29;20060;-73
2024/02/05 05:48:16;;;;;;;0.20;0.20;;;;;;;6.83;100.00;100060.31;4873355;29;20128;-71
2024/02/05 05:50:42;;;;;;;0.57;0.52;;;;;;;6.82;100.00;100047.28;4869797;29;20038;-72
2024/02/05 05:53:08;;;;;;;0.28;0.28;;;;;;;7.23;100.00;100115.44;4870784;29;20473;-71
2024/02/05 05:55:33;;;;;;;0.22;0.22;;;;;;;7.34;100.00;100124.25;4873693;29;20052;-73
2024/02/05 05:57:59;;;;;;;0.30;0.30;;;;;;;6.87;100.00;100036.00;4872664;29;20036;-73
2024/02/05 06:00:24;;;;;;;0.45;0.45;;;;;;;7.40;100.00;100113.88;4870088;29;20064;-74
2024/02/05 06:02:50;;;;;;;1.42;1.38;;;;;;;6.97;100.00;100042.16;4873604;29;20608;-72
2024/02/05 06:05:15;;;;;;;0.30;0.30;;;;;;;7.52;100.00;100117.44;4870465;29;20056;-72
2024/02/05 06:07:41;;;;;;;0.20;0.20;;;;;;;7.70;100.00;100130.63;4870860;29;20036;-73
2024/02/05 06:10:08;;;;;;;0.30;0.30;;;;;;;7.17;100.00;100032.78;4857976;29;20097;-72
2024/02/05 06:12:34;;;;;;;0.50;0.50;;;;;;;7.82;100.00;100138.53;4870066;29;20408;-73
2024/02/05 06:14:59;;;;;;;0.40;0.40;;;;;;;7.79;100.00;100156.78;4871996;29;20041;-73
2024/02/05 06:17:25;;;;;;;0.20;0.20;;;;;;;7.60;100.00;100093.13;4871868;29;20053;-73
2024/02/05 06:19:50;;;;;;;0.30;0.30;;;;;;;7.37;100.00;100032.03;4869378;29;20421;-72
2024/02/05 06:22:16;;;;;;;0.20;0.20;;;;;;;7.85;100.00;100092.41;4874037;29;20119;-71
2024/02/05 06:24:41;;;;;;;0.30;0.30;;;;;;;8.10;100.00;100129.97;4872866;29;20064;-72
2024/02/05 06:27:07;;;;;;;0.30;0.30;;;;;;;7.63;100.00;100045.25;4863966;29;20087;-72
2024/02/05 06:29:33;;;;;;;0.22;0.22;;;;;;;7.53;100.00;100009.53;4856562;29;20136;-71
2024/02/05 06:31:58;;;;;;;0.25;0.25;;;;;;;8.22;100.00;100122.22;4867427;29;20072;-74
2024/02/05 06:34:25;;;;;;;0.30;0.30;;;;;;;7.79;100.00;100059.28;4868986;29;20045;-75
2024/02/05 06:36:50;;;;;;;0.30;0.30;;;;;;;8.28;100.00;100131.81;4873165;29;20032;-76
2024/02/05 06:39:16;;;;;;;0.20;0.20;;;;;;;8.38;100.00;100123.16;4852958;29;20128;-76
2024/02/05 06:41:41;;;;;;;0.20;0.20;;;;;;;8.17;100.00;100076.88;4870763;29;20105;-78
2024/02/05 06:44:08;;;;;;;0.20;0.20;;;;;;;7.95;100.00;100032.38;4869041;29;20105;-77
2024/02/05 06:46:33;;;;;;;0.45;0.45;;;;;;;8.27;100.00;100083.91;4869866;29;20124;-77
2024/02/05 06:48:59;;;;;;;0.30;0.30;;;;;;;8.46;100.00;100118.88;4869181;29;20044;-77
2024/02/05 06:51:25;;;;;;;0.20;0.20;;;;;;;8.14;100.00;100069.03;4873643;29;20061;-78
2024/02/05 06:53:52;;;;;;;0.73;0.73;;;;;;;8.00;100.00;100038.47;4870337;29;20056;-76
2024/02/05 06:56:18;;;;;;;0.50;0.50;;;;;;;7.95;100.00;100011.47;4874047;29;20048;-74
2024/02/05 06:58:43;;;;;;;0.30;0.30;;;;;;;8.16;100.00;100035.94;4871580;29;20083;-75
2024/02/05 07:01:11;;;;;;;0.73;0.73;;;;;;;8.10;100.00;100022.84;4869828;29;20454;-77
2024/02/05 07:03:36;;;;;;;0.98;0.75;;;;;;;8.05;100.00;100009.75;4870857;29;20059;-78
2024/02/05 07:06:02;;;;;;;0.82;0.82;;;;;;;8.55;100.00;100099.72;4870168;29;20057;-78
2024/02/05 07:08:28;;;;;;;1.02;0.98;;;;;;;8.73;100.00;100122.44;4855642;29;20127;-76
2024/02/05 07:10:53;;;;;;;0.30;0.30;;;;;;;8.73;100.00;100099.75;4870057;29;20065;-76
2024/02/05 07:13:19;;;;;;;0.25;0.25;;;;;;;8.21;100.00;100010.69;4874359;29;20143;-77
2024/02/05 07:15:44;;;;;;;0.70;0.70;;;;;;;8.74;100.00;100098.03;4873204;29;20411;-78
2024/02/05 07:18:10;;;;;;;1.00;1.00;;;;;;;8.93;100.00;100123.38;4876716;29;20461;-77
2024/02/05 07:20:35;;;;;;;2.88;1.75;;;;;;;8.51;100.00;100056.13;4875924;29;20059;-76
2024/02/05 07:23:01;;;;;;;0.25;0.25;;;;;;;8.94;100.00;100122.47;4872206;29;20591;-77
2024/02/05 07:25:27;;;;;;;0.30;0.30;;;;;;;9.03;100.00;100134.72;4873102;29;20128;-76
2024/02/05 07:27:52;;;;;;;0.30;0.30;;;;;;;8.91;100.00;100092.84;4859166;29;20449;-76
2024/02/05 07:30:19;;;;;;;0.73;0.52;;;;;;;9.20;100.00;100151.34;4871825;29;20120;-76
2024/02/05 07:32:44;;;;;;;0.20;0.20;;;;;;;9.06;100.00;100114.66;4873020;29;20045;-76
2024/02/05 07:35:10;;;;;;;0.50;0.50;;;;;;;9.34;100.00;100139.97;4872709;29;20091;-76
2024/02/05 07:37:36;;;;;;;0.20;0.20;;;;;;;8.74;100.00;100035.25;4872787;29;20063;-75
2024/02/05 07:40:05;;;;;;;0.30;0.30;;;;;;;9.16;100.00;100067.56;4872432;29;20045;-77
2024/02/05 07:42:30;;;;;;;0.30;0.30;;;;;;;9.46;100.00;100101.59;4871536;29;20366;-75
2024/02/05 07:44:56;;;;;;;0.30;0.30;;;;;;;9.45;100.00;100085.88;4870906;29;20059;-78
2024/02/05 07:47:21;;;;;;;0.20;0.20;;;;;;;9.74;100.00;100106.81;4872486;29;20152;-78
2024/02/05 07:49:47;;;;;;;0.30;0.30;;;;;;;9.79;100.00;100115.53;4871909;29;20053;-76
2024/02/05 07:52:14;;;;;;;0.20;0.20;;;;;;;9.80;100.00;100080.56;4872798;29;20525;-76
2024/02/05 07:54:40;;;;;;;0.20;0.20;;;;;;;9.89;100.00;100103.28;4872703;29;20040;-77
2024/02/05 07:57:05;;;;;;;0.40;0.40;;;;;;;10.09;100.00;100111.97;4872661;29;20389;-77
2024/02/05 07:59:31;;;;;;;0.63;0.57;;;;;;;10.13;100.00;100116.31;4872481;29;20053;-77
2024/02/05 08:01:58;;;;;;;1.10;1.10;;;;;;;9.87;100.00;100048.25;4867654;29;20079;-75
2024/02/05 08:04:23;;;;;;;1.42;0.73;;;;;;;10.25;100.00;100094.41;4870685;29;20029;-76
2024/02/05 08:06:50;;;;;;;0.30;0.30;;;;;;;9.92;100.00;100022.88;4872737;29;20040;-77
2024/02/05 08:09:15;;;;;;;0.30;0.30;;;;;;;10.43;100.00;100104.00;4864375;29;20048;-75
2024/02/05 08:11:41;;;;;;;0.40;0.40;;;;;;;9.89;100.00;99987.97;4870961;29;20056;-77
2024/02/05 08:14:10;;;;;;;0.20;0.20;;;;;;;10.69;100.00;100108.25;4870369;29;20052;-76
2024/02/05 08:16:35;;;;;;;0.20;0.20;;;;;;;10.63;100.00;100075.06;4854949;29;20069;-76
2024/02/05 08:19:01;;;;;;;0.73;0.60;;;;;;;10.69;100.00;100051.38;4871210;29;20049;-76
2024/02/05 08:21:27;;;;;;;0.90;0.82;;;;;;;10.73;100.00;100042.63;4871481;29;20055;-78
2024/02/05 08:23:52;;;;;;;0.20;0.20;;;;;;;11.09;100.00;100092.25;4869432;29;20049;-76
2024/02/05 08:26:18;;;;;;;0.20;0.20;;;;;;;10.93;100.00;100068.75;4870625;29;20595;-78
2024/02/05 08:28:44;;;;;;;0.20;0.20;;;;;;;10.56;100.00;99989.41;4873426;29;20055;-76
2024/02/05 08:31:10;;;;;;;0.35;0.35;;;;;;;11.08;100.00;100073.00;4856495;29;20033;-75
2024/02/05 08:33:35;;;;;;;0.52;0.30;;;;;;;10.83;100.00;100029.44;4871775;29;20074;-77
2024/02/05 08:36:01;;;;;;;0.82;0.82;;;;;;;11.16;100.00;100081.66;4869207;29;20054;-78
2024/02/05 08:38:27;;;;;;;0.85;0.60;;;;;;;10.75;100.00;100013.75;4868756;29;20092;-78
2024/02/05 08:40:53;;;;;;;0.50;0.50;;;;;;;11.21;100.00;100089.50;4869964;29;20077;-76
2024/02/05 08:43:18;;;;;;;1.02;0.90;;;;;;;11.31;100.00;100116.59;4871716;29;20117;-76
2024/02/05 08:45:46;;;;;;;0.60;0.57;;;;;;;10.82;100.00;100011.97;4868878;29;20041;-76
2024/02/05 08:48:11;;;;;;;0.55;0.40;;;;;;;10.88;100.00;100011.88;4867314;29;20162;-75
2024/02/05 08:50:39;;;;;;;1.33;1.23;;;;;;;10.81;100.00;100004.94;4865607;29;20536;-76
2024/02/05 08:53:05;;;;;;;0.98;0.85;;;;;;;11.47;100.00;100112.97;4873939;29;20450;-77
2024/02/05 08:55:31;;;;;;;2.72;0.98;;;;;;;11.25;100.00;100077.25;4854857;29;20409;-77
2024/02/05 08:57:57;;;;;;;9.75;5.78;;;;;;;11.48;100.00;100084.94;4872250;29;20041;-77
2024/02/05 09:00:22;;;;;;;0.70;0.55;;;;;;;11.11;100.00;100023.06;4870110;29;20052;-76
2024/02/05 09:02:50;;;;;;;2.25;0.82;;;;;;;11.68;100.00;100108.38;4870960;29;20053;-74
2024/02/05 09:05:19;;;;;;;0.38;0.30;;;;;;;11.68;100.00;100090.84;4864795;29;20489;-78
2024/02/05 09:07:46;;;;;;;0.82;0.82;;;;;;;11.27;100.00;100010.69;4871542;29;20053;-77
2024/02/05 09:10:12;;;;;;;0.50;0.50;;;;;;;11.92;100.00;100107.31;4870942;29;20052;-78
2024/02/05 09:12:38;;;;;;;0.65;0.60;;;;;;;11.94;100.00;100100.25;4876701;29;20433;-78
2024/02/05 09:15:04;;;;;;;0.80;0.57;;;;;;;11.45;100.00;100017.53;4869639;29;20588;-75
2024/02/05 09:17:30;;;;;;;1.02;0.68;;;;;;;11.98;100.00;100096.72;4871998;29;20060;-77
2024/02/05 09:19:56;;;;;;;1.02;0.85;;;;;;;11.66;100.00;100024.31;4870139;29;20057;-76
2024/02/05 09:22:21;;;;;;;1.08;0.47;;;;;;;11.08;100.00;99912.84;4871481;29;20881;-76
2024/02/05 09:24:47;;;;;;;0.60;0.57;;;;;;;11.95;100.00;100068.72;4851669;29;20449;-76
2024/02/05 09:27:13;;;;;;;3.00;1.60;;;;;;;12.25;100.00;100098.19;4872321;29;20057;-76
2024/02/05 09:29:38;;;;;;;1.27;1.15;;;;;;;12.30;100.00;100066.56;4871464;29;20048;-78
2024/02/05 09:32:05;;;;;;;0.82;0.60;;;;;;;12.19;100.00;100069.31;4869750;29;20425;-76
2024/02/05 09:34:31;;;;;;;1.10;0.40;;;;;;;11.90;100.00;99973.25;4871605;29;20040;-77
2024/02/05 09:36:56;;;;;;;1.55;1.45;;;;;;;12.11;100.00;99987.00;4872034;29;20029;-76
2024/02/05 09:39:22;;;;;;;0.35;0.35;;;;;;;11.99;100.00;99959.13;4875338;29;20117;-78
2024/02/05 09:41:50;;;;;;;1.27;0.95;;;;;;;12.68;100.00;100053.72;4874104;29;20037;-78
2024/02/05 09:44:16;;;;;;;0.50;0.50;;;;;;;12.65;100.00;100019.56;4867448;29;20923;-76
2024/02/05 09:46:51;;;;;;;0.73;0.73;;;;;;;12.59;100.00;99988.06;4870278;29;20079;-76
2024/02/05 09:49:18;;;;;;;0.57;0.57;;;;;;;13.14;100.00;100062.72;4871616;29;20496;-78
2024/02/05 09:51:46;;;;;;;1.40;1.30;;;;;;;12.96;100.00;100010.31;4872051;29;20813;-76
2024/02/05 09:54:14;;;;;;;1.13;1.02;;;;;;;13.15;100.00;100027.53;4872266;29;20135;-78
2024/02/05 09:56:39;;;;;;;2.28;1.45;;;;;;;13.30;100.00;100015.94;4872988;29;20045;-75
2024/02/05 09:59:05;;;;;;;2.67;2.47;;;;;;;13.00;100.00;99949.66;4870199;29;20136;-77
2024/02/05 10:01:32;;;;;;;1.13;0.98;;;;;;;12.85;100.00;99913.94;4871510;29;20108;-78
2024/02/05 10:03:58;;;;;;;1.50;1.40;;;;;;;13.42;100.00;99991.13;4870822;29;20037;-76
2024/02/05 10:06:29;;;;;;;1.00;0.90;;;;;;;13.59;100.00;100023.28;4871323;29;20049;-77
2024/02/05 10:09:05;;;;;;;0.60;0.60;;;;;;;13.15;100.00;99924.81;4870577;29;20076;-77
2024/02/05 10:11:42;;;;;;;0.88;0.80;;;;;;;13.70;100.00;100029.25;4871943;29;20088;-75
2024/02/05 10:14:08;;;;;;;0.57;0.50;;;;;;;13.79;100.00;100003.56;4868103;29;20064;-77
2024/02/05 10:16:34;;;;;;;1.08;0.98;;;;;;;13.25;100.00;99884.25;4874195;29;20041;-76
2024/02/05 10:18:59;;;;;;;1.00;0.95;;;;;;;13.90;100.00;99976.09;4872507;29;20104;-76
2024/02/05 10:21:25;;;;;;;2.22;1.30;;;;;;;14.13;100.00;99991.44;4873646;29;20410;-76
2024/02/05 10:23:54;;;;;;;1.60;0.88;;;;;;;13.57;100.00;99893.28;4870794;29;20072;-76
2024/02/05 10:26:24;;;;;;;0.38;0.32;;;;;;;13.76;100.00;99914.84;4873652;29;20060;-78
2024/02/05 10:28:51;;;;;;;0.50;0.30;;;;;;;13.65;100.00;99895.75;4858180;29;20535;-78
2024/02/05 10:31:17;;;;;;;0.40;0.40;;;;;;;14.05;100.00;99966.13;4874749;29;20093;-76
2024/02/05 10:33:43;;;;;;;0.40;0.35;;;;;;;14.18;100.00;99975.50;4857636;29;20029;-75
2024/02/05 10:36:11;;;;;;;1.30;1.20;;;;;;;13.99;100.00;99929.34;4874417;29;20577;-76
2024/02/05 10:38:37;;;;;;;0.73;0.65;;;;;;;14.23;100.00;99956.94;4873647;29;20069;-75
2024/02/05 10:41:09;;;;;;;1.77;0.75;;;;;;;14.30;100.00;99984.91;4873295;29;20061;-77
2024/02/05 10:43:35;;;;;;;0.20;0.20;;;;;;;14.40;100.00;99978.56;4858538;29;20136;-77
2024/02/05 10:46:01;;;;;;;0.50;0.50;;;;;;;14.34;100.00;99953.16;4872679;29;20120;-77
2024/02/05 10:48:26;;;;;;;0.80;0.50;;;;;;;14.47;100.00;99966.94;4873936;29;20524;-78
2024/02/05 10:50:53;;;;;;;0.40;0.40;;;;;;;14.62;100.00;99959.59;4872339;29;20057;-76
2024/02/05 10:53:19;;;;;;;0.73;0.68;;;;;;;14.61;100.00;99968.41;4871138;29;20057;-77
2024/02/05 10:55:48;;;;;;;1.95;1.40;;;;;;;14.92;100.00;99945.63;4873916;29;20049;-76
2024/02/05 10:58:14;;;;;;;0.98;0.98;;;;;;;15.01;100.00;99959.50;4874876;29;20077;-76
2024/02/05 11:00:41;;;;;;;1.23;0.82;;;;;;;15.33;100.00;99961.31;4872297;29;20041;-77
2024/02/05 11:03:11;;;;;;;0.43;0.43;;;;;;;14.96;100.00;99844.25;4872675;29;20108;-77
2024/02/05 11:05:38;;;;;;;0.20;0.20;;;;;;;15.53;100.00;99913.19;4874071;29;20089;-76
2024/02/05 11:08:07;;;;;;;2.83;0.75;;;;;;;15.92;100.00;99957.94;4872557;29;20100;-77
2024/02/05 11:10:37;;;;;;;0.40;0.40;;;;;;;15.97;100.00;99959.53;4872451;29;20048;-77
2024/02/05 11:13:05;;;;;;;1.33;1.23;;;;;;;15.70;100.00;99847.47;4874406;29;20438;-76
2024/02/05 11:15:40;;;;;;;2.42;1.25;;;;;;;16.45;100.00;99956.28;4872292;29;20049;-78
2024/02/05 11:18:20;;;;;;;1.38;1.27;;;;;;;16.39;100.00;99961.81;4873252;29;20061;-75
2024/02/05 11:20:47;;;;;;;2.67;0.90;;;;;;;16.65;100.00;99930.97;4868832;29;20051;-76